createdAt,value
2023-04-16T00:05:38.252Z,1013.2
2023-04-16T00:11:43.584Z,1013.2
2023-04-16T00:17:49.174Z,1013.2
2023-04-16T00:23:54.496Z,1013.3
2023-04-16T00:30:00.056Z,1013.3
2023-04-16T00:36:05.454Z,1013.3
2023-04-16T00:42:10.989Z,1013.2
2023-04-16T00:48:16.365Z,1013.2
2023-04-16T00:54:21.744Z,1013.2
2023-04-16T01:00:27.036Z,1013.2
2023-04-16T01:06:32.675Z,1013.2
2023-04-16T01:12:38.233Z,1013.3
2023-04-16T01:18:43.809Z,1013.3
2023-04-16T01:24:49.060Z,1013.3
2023-04-16T01:30:54.576Z,1013.4
2023-04-16T01:37:00.128Z,1013.4
2023-04-16T01:43:06.071Z,1013.4
2023-04-16T01:49:12.438Z,1013.5
2023-04-16T01:55:17.845Z,1013.5
2023-04-16T02:01:24.444Z,1013.5
2023-04-16T02:07:29.785Z,1013.4
2023-04-16T02:13:35.150Z,1013.4
2023-04-16T02:19:40.924Z,1013.4
2023-04-16T02:25:46.295Z,1013.5
2023-04-16T02:31:52.086Z,1013.5
2023-04-16T02:37:57.908Z,1013.6
2023-04-16T02:44:03.411Z,1013.5
2023-04-16T02:50:09.443Z,1013.6
2023-04-16T02:56:15.240Z,1013.5
2023-04-16T03:02:20.888Z,1013.5
2023-04-16T03:08:26.924Z,1013.6
2023-04-16T03:14:32.537Z,1013.7
2023-04-16T03:20:38.093Z,1013.7
2023-04-16T03:26:43.691Z,1013.7
2023-04-16T03:32:49.889Z,1013.7
2023-04-16T03:38:55.833Z,1013.8
2023-04-16T03:45:01.609Z,1013.8
2023-04-16T03:51:07.171Z,1013.8
2023-04-16T03:57:12.594Z,1013.8
2023-04-16T04:03:18.455Z,1013.9
2023-04-16T04:09:24.976Z,1014
2023-04-16T04:15:30.476Z,1014.1
2023-04-16T04:21:35.453Z,1014
2023-04-16T04:27:41.623Z,1014.1
2023-04-16T04:33:47.253Z,1014.1
2023-04-16T04:39:52.417Z,1014.1
2023-04-16T04:45:58.164Z,1014.1
2023-04-16T04:52:03.508Z,1014.2
2023-04-16T04:58:09.351Z,1014.2
2023-04-16T05:04:14.723Z,1014.3
2023-04-16T05:10:20.082Z,1014.3
2023-04-16T05:16:25.893Z,1014.4
2023-04-16T05:22:31.651Z,1014.4
2023-04-16T05:28:37.217Z,1014.5
2023-04-16T05:34:43.005Z,1014.6
2023-04-16T05:40:48.134Z,1014.6
2023-04-16T05:46:53.305Z,1014.6
2023-04-16T05:52:59.007Z,1014.6
2023-04-16T05:59:04.872Z,1014.6
2023-04-16T06:05:10.456Z,1014.7
2023-04-16T06:11:16.209Z,1014.7
2023-04-16T06:17:21.590Z,1014.8
2023-04-16T06:23:26.676Z,1014.8
2023-04-16T06:29:42.485Z,1014.8
2023-04-16T06:35:47.881Z,1014.8
2023-04-16T06:41:53.440Z,1014.8
2023-04-16T06:47:58.691Z,1014.9
2023-04-16T06:54:04.472Z,1015
2023-04-16T07:00:09.941Z,1015
2023-04-16T07:06:15.523Z,1015.1
2023-04-16T07:12:23.110Z,1015.1
2023-04-16T07:18:28.926Z,1015.1
2023-04-16T07:24:34.286Z,1015.2
2023-04-16T07:30:39.655Z,1015.1
2023-04-16T07:36:45.249Z,1015.2
2023-04-16T07:42:51.046Z,1015.2
2023-04-16T07:48:56.626Z,1015.3
2023-04-16T07:55:02.765Z,1015.3
2023-04-16T08:01:07.999Z,1015.3
2023-04-16T08:07:13.994Z,1015.4
2023-04-16T08:13:19.546Z,1015.4
2023-04-16T08:19:25.122Z,1015.4
2023-04-16T08:25:30.900Z,1015.5
2023-04-16T08:31:36.699Z,1015.5
2023-04-16T08:37:42.046Z,1015.5
2023-04-16T08:43:47.833Z,1015.5
2023-04-16T08:49:53.207Z,1015.6
2023-04-16T08:55:59.935Z,1015.6
2023-04-16T09:02:06.310Z,1015.6
2023-04-16T09:08:11.681Z,1015.7
2023-04-16T09:14:17.282Z,1015.8
2023-04-16T09:20:23.712Z,1015.8
2023-04-16T09:26:29.829Z,1015.8
2023-04-16T09:32:35.422Z,1015.7
2023-04-16T09:38:40.765Z,1015.7
2023-04-16T09:44:46.140Z,1015.8
2023-04-16T09:50:51.351Z,1015.8
2023-04-16T09:56:56.985Z,1015.8
2023-04-16T10:03:02.604Z,1015.9
2023-04-16T10:09:08.478Z,1015.9
2023-04-16T10:15:15.051Z,1016
2023-04-16T10:21:20.829Z,1015.9
2023-04-16T10:27:26.034Z,1015.9
2023-04-16T10:33:31.764Z,1016
2023-04-16T10:39:36.915Z,1015.9
2023-04-16T10:45:42.290Z,1015.9
2023-04-16T10:51:47.653Z,1015.9
2023-04-16T10:57:53.220Z,1016
2023-04-16T11:03:58.739Z,1016
2023-04-16T11:10:05.235Z,1016
2023-04-16T11:16:10.595Z,1016
2023-04-16T11:22:15.366Z,1016.1
2023-04-16T11:28:20.677Z,1016.1
2023-04-16T11:34:26.675Z,1016.1
2023-04-16T11:40:32.026Z,1016.2
2023-04-16T11:46:37.424Z,1016.2
2023-04-16T11:52:42.973Z,1016.2
2023-04-16T11:58:48.536Z,1016.2
2023-04-16T12:04:54.251Z,1016.3
2023-04-16T12:10:59.715Z,1016.3
2023-04-16T12:17:05.298Z,1016.3
2023-04-16T12:23:11.499Z,1016.3
2023-04-16T12:29:17.097Z,1016.3
2023-04-16T12:35:22.374Z,1016.4
2023-04-16T12:41:27.806Z,1016.3
2023-04-16T12:47:33.154Z,1016.4
2023-04-16T12:53:38.545Z,1016.4
2023-04-16T12:59:44.063Z,1016.4
2023-04-16T13:05:49.917Z,1016.5
2023-04-16T13:11:54.859Z,1016.4
2023-04-16T13:17:59.856Z,1016.4
2023-04-16T13:24:05.605Z,1016.4
2023-04-16T13:30:11.167Z,1016.4
2023-04-16T13:36:16.550Z,1016.5
2023-04-16T13:42:22.512Z,1016.4
2023-04-16T13:48:28.441Z,1016.5
2023-04-16T13:54:33.601Z,1016.5
2023-04-16T14:00:39.038Z,1016.6
2023-04-16T14:06:44.418Z,1016.5
2023-04-16T14:12:49.964Z,1016.5
2023-04-16T14:18:55.003Z,1016.6
2023-04-16T14:25:00.896Z,1016.6
2023-04-16T14:31:06.700Z,1016.5
2023-04-16T14:37:12.200Z,1016.5
2023-04-16T14:43:18.194Z,1016.6
2023-04-16T14:49:23.758Z,1016.6
2023-04-16T14:55:29.524Z,1016.6
2023-04-16T15:01:34.980Z,1016.7
2023-04-16T15:07:40.534Z,1016.7
2023-04-16T15:13:46.329Z,1016.7
2023-04-16T15:19:52.102Z,1016.7
2023-04-16T15:25:57.456Z,1016.7
2023-04-16T15:32:03.043Z,1016.8
2023-04-16T15:38:08.530Z,1016.8
2023-04-16T15:44:14.784Z,1016.8
2023-04-16T15:50:20.570Z,1016.8
2023-04-16T15:56:26.161Z,1016.8
2023-04-16T16:02:32.606Z,1016.9
2023-04-16T16:08:38.044Z,1016.9
2023-04-16T16:14:43.615Z,1016.8
2023-04-16T16:20:49.233Z,1016.8
2023-04-16T16:26:55.030Z,1016.8
2023-04-16T16:33:01.003Z,1016.8
2023-04-16T16:39:06.778Z,1016.8
2023-04-16T16:45:12.090Z,1016.8
2023-04-16T16:51:17.527Z,1016.9
2023-04-16T16:57:23.291Z,1016.9
2023-04-16T17:03:28.909Z,1016.9
2023-04-16T17:09:34.657Z,1016.9
2023-04-16T17:15:40.008Z,1017
2023-04-16T17:21:45.384Z,1017
2023-04-16T17:27:50.981Z,1017
2023-04-16T17:33:56.891Z,1017
2023-04-16T17:40:02.112Z,1017.1
2023-04-16T17:46:07.447Z,1017.1
2023-04-16T17:52:13.005Z,1017.2
2023-04-16T17:58:18.175Z,1017.2
2023-04-16T18:04:23.740Z,1017.3
2023-04-16T18:10:29.567Z,1017.3
2023-04-16T18:16:37.982Z,1017.4
2023-04-16T18:22:43.701Z,1017.5
2023-04-16T18:28:49.291Z,1017.6
2023-04-16T18:34:54.652Z,1017.7
2023-04-16T18:41:00.429Z,1017.8
2023-04-16T18:47:06.057Z,1017.8
2023-04-16T18:53:11.175Z,1017.8
2023-04-16T18:59:16.739Z,1017.9
2023-04-16T19:05:22.786Z,1017.9
2023-04-16T19:11:27.887Z,1018
2023-04-16T19:17:33.760Z,1018
2023-04-16T19:23:39.645Z,1018.1
2023-04-16T19:29:45.410Z,1018.1
2023-04-16T19:35:51.059Z,1018.1
2023-04-16T19:41:56.776Z,1018.2
2023-04-16T19:48:02.217Z,1018.1
2023-04-16T19:54:07.500Z,1018.1
2023-04-16T20:00:12.871Z,1018.2
2023-04-16T20:06:18.087Z,1018.2
2023-04-16T20:12:23.810Z,1018.3
2023-04-16T20:18:29.848Z,1018.3
2023-04-16T20:24:35.816Z,1018.1
2023-04-16T20:30:42.041Z,1018.1
2023-04-16T20:36:47.745Z,1018
2023-04-16T20:42:53.310Z,1018
2023-04-16T20:48:59.291Z,1018
2023-04-16T20:55:05.482Z,1018.1
2023-04-16T21:01:11.300Z,1018.2
2023-04-16T21:07:17.251Z,1018.1
2023-04-16T21:13:23.029Z,1018.1
2023-04-16T21:19:28.449Z,1018.1
2023-04-16T21:25:33.974Z,1018.2
2023-04-16T21:31:40.160Z,1018.2
2023-04-16T21:37:45.929Z,1018.2
2023-04-16T21:43:51.499Z,1018.2
2023-04-16T21:49:57.281Z,1018.1
2023-04-16T21:56:03.270Z,1018.2
2023-04-16T22:02:08.655Z,1018.2
2023-04-16T22:08:26.093Z,1018.1
2023-04-16T22:14:31.714Z,1018.1
2023-04-16T22:20:36.867Z,1018.1
2023-04-16T22:26:42.387Z,1018.1
2023-04-16T22:32:47.871Z,1018.1
2023-04-16T22:38:53.595Z,1018.1
2023-04-16T22:44:59.509Z,1018
2023-04-16T22:51:05.910Z,1018
2023-04-16T22:57:11.150Z,1018
2023-04-16T23:03:16.543Z,1018
2023-04-16T23:09:21.899Z,1018
2023-04-16T23:15:27.105Z,1017.9
2023-04-16T23:21:32.707Z,1017.9
2023-04-16T23:27:38.179Z,1017.9
2023-04-16T23:33:43.526Z,1018
2023-04-16T23:39:49.077Z,1018
2023-04-16T23:45:54.719Z,1018
2023-04-16T23:52:00.265Z,1017.9
2023-04-16T23:58:05.993Z,1017.9
